sensor_id;sensor_type;location;lat;lon;timestamp;P1;durP1;ratioP1;P2;durP2;ratioP2
76021;SDS011;64718;52.124;6.226;2023-05-14T00:00:18;12.75;;;9.48;;
76021;SDS011;64718;52.124;6.226;2023-05-14T00:02:46;16.83;;;10.80;;
76021;SDS011;64718;52.124;6.226;2023-05-14T00:05:12;13.05;;;9.00;;
76021;SDS011;64718;52.124;6.226;2023-05-14T00:07:39;14.25;;;10.20;;
76021;SDS011;64718;52.124;6.226;2023-05-14T00:10:06;15.23;;;9.93;;
76021;SDS011;64718;52.124;6.226;2023-05-14T00:12:33;16.58;;;9.80;;
76021;SDS011;64718;52.124;6.226;2023-05-14T00:14:59;12.27;;;9.80;;
76021;SDS011;64718;52.124;6.226;2023-05-14T00:17:26;16.58;;;9.15;;
76021;SDS011;64718;52.124;6.226;2023-05-14T00:19:53;15.45;;;10.07;;
76021;SDS011;64718;52.124;6.226;2023-05-14T00:22:20;14.95;;;10.27;;
76021;SDS011;64718;52.124;6.226;2023-05-14T00:24:46;13.45;;;9.57;;
76021;SDS011;64718;52.124;6.226;2023-05-14T00:27:13;18.20;;;11.10;;
76021;SDS011;64718;52.124;6.226;2023-05-14T00:29:39;13.57;;;9.77;;
76021;SDS011;64718;52.124;6.226;2023-05-14T00:32:06;15.95;;;9.73;;
76021;SDS011;64718;52.124;6.226;2023-05-14T00:34:33;13.63;;;9.30;;
76021;SDS011;64718;52.124;6.226;2023-05-14T00:37:01;15.45;;;9.38;;
76021;SDS011;64718;52.124;6.226;2023-05-14T00:39:28;15.55;;;9.07;;
76021;SDS011;64718;52.124;6.226;2023-05-14T00:41:54;14.85;;;9.70;;
76021;SDS011;64718;52.124;6.226;2023-05-14T00:44:21;14.50;;;9.35;;
76021;SDS011;64718;52.124;6.226;2023-05-14T00:46:47;12.65;;;8.25;;
76021;SDS011;64718;52.124;6.226;2023-05-14T00:49:14;16.13;;;9.55;;
76021;SDS011;64718;52.124;6.226;2023-05-14T00:51:41;17.17;;;9.52;;
76021;SDS011;64718;52.124;6.226;2023-05-14T00:54:12;13.50;;;9.75;;
76021;SDS011;64718;52.124;6.226;2023-05-14T00:56:39;13.77;;;10.25;;
76021;SDS011;64718;52.124;6.226;2023-05-14T00:59:06;14.43;;;9.73;;
76021;SDS011;64718;52.124;6.226;2023-05-14T01:01:32;13.52;;;9.13;;
76021;SDS011;64718;52.124;6.226;2023-05-14T01:03:59;13.48;;;9.32;;
76021;SDS011;64718;52.124;6.226;2023-05-14T01:06:28;13.02;;;9.38;;
76021;SDS011;64718;52.124;6.226;2023-05-14T01:09:02;14.77;;;9.20;;
76021;SDS011;64718;52.124;6.226;2023-05-14T01:11:41;15.02;;;9.30;;
76021;SDS011;64718;52.124;6.226;2023-05-14T01:14:19;17.73;;;9.30;;
76021;SDS011;64718;52.124;6.226;2023-05-14T01:16:49;17.30;;;9.68;;
76021;SDS011;64718;52.124;6.226;2023-05-14T01:19:21;17.30;;;10.05;;
76021;SDS011;64718;52.124;6.226;2023-05-14T01:22:00;16.70;;;10.60;;
76021;SDS011;64718;52.124;6.226;2023-05-14T01:24:26;15.60;;;9.52;;
76021;SDS011;64718;52.124;6.226;2023-05-14T01:26:53;19.13;;;10.60;;
76021;SDS011;64718;52.124;6.226;2023-05-14T01:29:25;15.57;;;10.52;;
76021;SDS011;64718;52.124;6.226;2023-05-14T01:31:54;20.42;;;9.70;;
76021;SDS011;64718;52.124;6.226;2023-05-14T01:34:23;17.25;;;10.77;;
76021;SDS011;64718;52.124;6.226;2023-05-14T01:36:53;15.55;;;9.60;;
76021;SDS011;64718;52.124;6.226;2023-05-14T01:39:24;14.50;;;10.00;;
76021;SDS011;64718;52.124;6.226;2023-05-14T01:41:52;13.07;;;9.60;;
76021;SDS011;64718;52.124;6.226;2023-05-14T01:44:19;13.95;;;10.25;;
76021;SDS011;64718;52.124;6.226;2023-05-14T01:46:46;18.98;;;10.07;;
76021;SDS011;64718;52.124;6.226;2023-05-14T01:49:13;18.98;;;9.85;;
76021;SDS011;64718;52.124;6.226;2023-05-14T01:51:40;16.73;;;10.25;;
76021;SDS011;64718;52.124;6.226;2023-05-14T01:54:06;16.08;;;10.07;;
76021;SDS011;64718;52.124;6.226;2023-05-14T01:56:34;15.25;;;10.02;;
76021;SDS011;64718;52.124;6.226;2023-05-14T01:59:00;14.52;;;10.02;;
76021;SDS011;64718;52.124;6.226;2023-05-14T02:01:27;15.43;;;10.77;;
76021;SDS011;64718;52.124;6.226;2023-05-14T02:03:53;16.83;;;10.23;;
76021;SDS011;64718;52.124;6.226;2023-05-14T02:06:21;18.65;;;11.10;;
76021;SDS011;64718;52.124;6.226;2023-05-14T02:08:47;17.00;;;10.60;;
76021;SDS011;64718;52.124;6.226;2023-05-14T02:11:14;21.38;;;11.55;;
76021;SDS011;64718;52.124;6.226;2023-05-14T02:13:41;17.33;;;11.00;;
76021;SDS011;64718;52.124;6.226;2023-05-14T02:16:08;15.57;;;10.57;;
76021;SDS011;64718;52.124;6.226;2023-05-14T02:18:35;16.33;;;11.15;;
76021;SDS011;64718;52.124;6.226;2023-05-14T02:21:01;15.98;;;10.88;;
76021;SDS011;64718;52.124;6.226;2023-05-14T02:23:27;21.52;;;11.27;;
76021;SDS011;64718;52.124;6.226;2023-05-14T02:25:54;18.05;;;11.07;;
76021;SDS011;64718;52.124;6.226;2023-05-14T02:28:20;17.15;;;11.07;;
76021;SDS011;64718;52.124;6.226;2023-05-14T02:30:50;16.10;;;10.75;;
76021;SDS011;64718;52.124;6.226;2023-05-14T02:33:16;20.77;;;12.18;;
76021;SDS011;64718;52.124;6.226;2023-05-14T02:35:42;20.67;;;11.35;;
76021;SDS011;64718;52.124;6.226;2023-05-14T02:38:09;19.02;;;11.85;;
76021;SDS011;64718;52.124;6.226;2023-05-14T02:40:35;17.52;;;10.63;;
76021;SDS011;64718;52.124;6.226;2023-05-14T02:43:02;21.23;;;11.98;;
76021;SDS011;64718;52.124;6.226;2023-05-14T02:45:28;14.93;;;10.80;;
76021;SDS011;64718;52.124;6.226;2023-05-14T02:47:56;17.90;;;10.98;;
76021;SDS011;64718;52.124;6.226;2023-05-14T02:50:23;17.83;;;11.15;;
76021;SDS011;64718;52.124;6.226;2023-05-14T02:52:49;17.98;;;11.07;;
76021;SDS011;64718;52.124;6.226;2023-05-14T02:55:16;21.02;;;10.90;;
76021;SDS011;64718;52.124;6.226;2023-05-14T02:57:42;18.00;;;12.52;;
76021;SDS011;64718;52.124;6.226;2023-05-14T03:00:10;20.58;;;13.30;;
76021;SDS011;64718;52.124;6.226;2023-05-14T03:02:37;20.48;;;11.95;;
76021;SDS011;64718;52.124;6.226;2023-05-14T03:05:05;22.83;;;13.00;;
76021;SDS011;64718;52.124;6.226;2023-05-14T03:07:32;20.42;;;12.23;;
76021;SDS011;64718;52.124;6.226;2023-05-14T03:09:58;24.65;;;14.90;;
76021;SDS011;64718;52.124;6.226;2023-05-14T03:12:25;21.63;;;13.05;;
76021;SDS011;64718;52.124;6.226;2023-05-14T03:14:51;24.13;;;12.80;;
76021;SDS011;64718;52.124;6.226;2023-05-14T03:17:18;21.85;;;12.32;;
76021;SDS011;64718;52.124;6.226;2023-05-14T03:19:44;18.85;;;12.40;;
76021;SDS011;64718;52.124;6.226;2023-05-14T03:22:12;24.45;;;12.82;;
76021;SDS011;64718;52.124;6.226;2023-05-14T03:24:39;22.45;;;12.93;;
76021;SDS011;64718;52.124;6.226;2023-05-14T03:27:05;23.70;;;13.68;;
76021;SDS011;64718;52.124;6.226;2023-05-14T03:29:32;23.08;;;13.27;;
76021;SDS011;64718;52.124;6.226;2023-05-14T03:31:58;21.40;;;12.55;;
76021;SDS011;64718;52.124;6.226;2023-05-14T03:34:25;26.02;;;13.00;;
76021;SDS011;64718;52.124;6.226;2023-05-14T03:36:51;23.45;;;14.18;;
76021;SDS011;64718;52.124;6.226;2023-05-14T03:39:19;23.73;;;13.30;;
76021;SDS011;64718;52.124;6.226;2023-05-14T03:41:46;22.70;;;14.40;;
76021;SDS011;64718;52.124;6.226;2023-05-14T03:44:13;24.83;;;13.90;;
76021;SDS011;64718;52.124;6.226;2023-05-14T03:46:39;26.75;;;13.63;;
76021;SDS011;64718;52.124;6.226;2023-05-14T03:49:06;24.80;;;15.10;;
76021;SDS011;64718;52.124;6.226;2023-05-14T03:51:32;24.77;;;13.25;;
76021;SDS011;64718;52.124;6.226;2023-05-14T03:53:59;24.73;;;14.70;;
76021;SDS011;64718;52.124;6.226;2023-05-14T03:56:27;22.33;;;13.57;;
76021;SDS011;64718;52.124;6.226;2023-05-14T03:58:54;23.80;;;13.23;;
76021;SDS011;64718;52.124;6.226;2023-05-14T04:01:20;22.38;;;13.13;;
76021;SDS011;64718;52.124;6.226;2023-05-14T04:03:47;24.65;;;13.68;;
76021;SDS011;64718;52.124;6.226;2023-05-14T04:06:13;23.10;;;14.40;;
76021;SDS011;64718;52.124;6.226;2023-05-14T04:08:40;26.05;;;14.52;;
76021;SDS011;64718;52.124;6.226;2023-05-14T04:11:06;26.63;;;14.82;;
76021;SDS011;64718;52.124;6.226;2023-05-14T04:13:34;23.98;;;13.40;;
76021;SDS011;64718;52.124;6.226;2023-05-14T04:16:01;26.80;;;15.32;;
76021;SDS011;64718;52.124;6.226;2023-05-14T04:18:27;23.20;;;13.38;;
76021;SDS011;64718;52.124;6.226;2023-05-14T04:20:54;26.98;;;13.15;;
76021;SDS011;64718;52.124;6.226;2023-05-14T04:23:20;21.90;;;12.52;;
76021;SDS011;64718;52.124;6.226;2023-05-14T04:25:47;23.75;;;13.10;;
76021;SDS011;64718;52.124;6.226;2023-05-14T04:28:13;20.15;;;13.32;;
76021;SDS011;64718;52.124;6.226;2023-05-14T04:30:41;21.35;;;12.57;;
76021;SDS011;64718;52.124;6.226;2023-05-14T04:33:08;23.05;;;13.35;;
76021;SDS011;64718;52.124;6.226;2023-05-14T04:35:35;23.02;;;12.27;;
76021;SDS011;64718;52.124;6.226;2023-05-14T04:38:01;23.83;;;12.65;;
76021;SDS011;64718;52.124;6.226;2023-05-14T04:40:28;26.65;;;12.63;;
76021;SDS011;64718;52.124;6.226;2023-05-14T04:42:55;24.13;;;12.60;;
76021;SDS011;64718;52.124;6.226;2023-05-14T04:45:21;19.80;;;11.85;;
76021;SDS011;64718;52.124;6.226;2023-05-14T04:47:49;24.60;;;13.38;;
76021;SDS011;64718;52.124;6.226;2023-05-14T04:50:16;20.08;;;11.10;;
76021;SDS011;64718;52.124;6.226;2023-05-14T04:52:42;20.50;;;11.13;;
76021;SDS011;64718;52.124;6.226;2023-05-14T04:55:09;17.30;;;10.55;;
76021;SDS011;64718;52.124;6.226;2023-05-14T04:57:36;20.67;;;11.75;;
76021;SDS011;64718;52.124;6.226;2023-05-14T05:00:02;19.58;;;11.10;;
76021;SDS011;64718;52.124;6.226;2023-05-14T05:02:34;15.77;;;10.82;;
76021;SDS011;64718;52.124;6.226;2023-05-14T05:05:02;15.35;;;9.05;;
76021;SDS011;64718;52.124;6.226;2023-05-14T05:07:29;17.85;;;10.85;;
76021;SDS011;64718;52.124;6.226;2023-05-14T05:09:55;16.85;;;10.25;;
76021;SDS011;64718;52.124;6.226;2023-05-14T05:12:22;17.50;;;11.40;;
76021;SDS011;64718;52.124;6.226;2023-05-14T05:14:48;18.00;;;10.32;;
76021;SDS011;64718;52.124;6.226;2023-05-14T05:17:15;19.33;;;10.93;;
76021;SDS011;64718;52.124;6.226;2023-05-14T05:19:41;17.05;;;10.55;;
76021;SDS011;64718;52.124;6.226;2023-05-14T05:22:09;15.50;;;9.40;;
76021;SDS011;64718;52.124;6.226;2023-05-14T05:24:36;16.17;;;10.25;;
76021;SDS011;64718;52.124;6.226;2023-05-14T05:27:02;17.58;;;9.73;;
76021;SDS011;64718;52.124;6.226;2023-05-14T05:29:30;16.23;;;9.88;;
76021;SDS011;64718;52.124;6.226;2023-05-14T05:31:56;14.70;;;9.75;;
76021;SDS011;64718;52.124;6.226;2023-05-14T05:34:23;16.52;;;9.63;;
76021;SDS011;64718;52.124;6.226;2023-05-14T05:36:49;13.98;;;9.50;;
76021;SDS011;64718;52.124;6.226;2023-05-14T05:39:18;14.35;;;9.32;;
76021;SDS011;64718;52.124;6.226;2023-05-14T05:41:45;15.73;;;9.65;;
76021;SDS011;64718;52.124;6.226;2023-05-14T05:44:11;15.85;;;10.48;;
76021;SDS011;64718;52.124;6.226;2023-05-14T05:46:37;14.93;;;9.73;;
76021;SDS011;64718;52.124;6.226;2023-05-14T05:49:04;16.42;;;10.50;;
76021;SDS011;64718;52.124;6.226;2023-05-14T05:51:30;16.10;;;9.98;;
76021;SDS011;64718;52.124;6.226;2023-05-14T05:53:57;16.77;;;9.57;;
76021;SDS011;64718;52.124;6.226;2023-05-14T05:56:25;16.17;;;11.07;;
76021;SDS011;64718;52.124;6.226;2023-05-14T05:58:51;14.88;;;9.02;;
76021;SDS011;64718;52.124;6.226;2023-05-14T06:01:18;15.93;;;9.57;;
76021;SDS011;64718;52.124;6.226;2023-05-14T06:03:44;17.58;;;9.93;;
76021;SDS011;64718;52.124;6.226;2023-05-14T06:06:11;15.15;;;9.43;;
76021;SDS011;64718;52.124;6.226;2023-05-14T06:08:37;17.20;;;9.77;;
76021;SDS011;64718;52.124;6.226;2023-05-14T06:11:04;13.90;;;8.88;;
76021;SDS011;64718;52.124;6.226;2023-05-14T06:13:32;15.73;;;9.70;;
76021;SDS011;64718;52.124;6.226;2023-05-14T06:15:58;13.70;;;9.50;;
76021;SDS011;64718;52.124;6.226;2023-05-14T06:18:25;14.30;;;8.88;;
76021;SDS011;64718;52.124;6.226;2023-05-14T06:20:51;12.73;;;8.35;;
76021;SDS011;64718;52.124;6.226;2023-05-14T06:23:18;16.67;;;9.40;;
76021;SDS011;64718;52.124;6.226;2023-05-14T06:25:44;13.15;;;9.88;;
76021;SDS011;64718;52.124;6.226;2023-05-14T06:28:10;13.13;;;9.00;;
76021;SDS011;64718;52.124;6.226;2023-05-14T06:30:38;14.23;;;9.43;;
76021;SDS011;64718;52.124;6.226;2023-05-14T06:33:05;13.73;;;8.35;;
76021;SDS011;64718;52.124;6.226;2023-05-14T06:35:31;13.05;;;9.32;;
76021;SDS011;64718;52.124;6.226;2023-05-14T06:37:58;14.48;;;9.02;;
76021;SDS011;64718;52.124;6.226;2023-05-14T06:40:25;10.85;;;7.75;;
76021;SDS011;64718;52.124;6.226;2023-05-14T06:42:51;11.52;;;8.95;;
76021;SDS011;64718;52.124;6.226;2023-05-14T06:45:18;13.02;;;10.32;;
76021;SDS011;64718;52.124;6.226;2023-05-14T06:47:45;14.57;;;10.02;;
76021;SDS011;64718;52.124;6.226;2023-05-14T06:50:12;13.15;;;8.38;;
76021;SDS011;64718;52.124;6.226;2023-05-14T06:52:38;12.88;;;9.68;;
76021;SDS011;64718;52.124;6.226;2023-05-14T06:55:07;12.00;;;9.48;;
76021;SDS011;64718;52.124;6.226;2023-05-14T06:57:34;10.77;;;8.90;;
76021;SDS011;64718;52.124;6.226;2023-05-14T07:00:00;15.75;;;9.15;;
76021;SDS011;64718;52.124;6.226;2023-05-14T07:02:27;13.27;;;9.30;;
76021;SDS011;64718;52.124;6.226;2023-05-14T07:04:55;12.55;;;9.68;;
76021;SDS011;64718;52.124;6.226;2023-05-14T07:07:21;10.60;;;8.32;;
76021;SDS011;64718;52.124;6.226;2023-05-14T07:09:48;12.18;;;8.80;;
76021;SDS011;64718;52.124;6.226;2023-05-14T07:12:15;12.85;;;8.88;;
76021;SDS011;64718;52.124;6.226;2023-05-14T07:14:41;13.70;;;9.23;;
76021;SDS011;64718;52.124;6.226;2023-05-14T07:17:08;10.90;;;8.30;;
76021;SDS011;64718;52.124;6.226;2023-05-14T07:19:35;10.75;;;8.02;;
76021;SDS011;64718;52.124;6.226;2023-05-14T07:22:03;13.70;;;8.40;;
76021;SDS011;64718;52.124;6.226;2023-05-14T07:24:29;11.75;;;8.75;;
76021;SDS011;64718;52.124;6.226;2023-05-14T07:26:56;10.98;;;8.73;;
76021;SDS011;64718;52.124;6.226;2023-05-14T07:29:22;14.07;;;9.52;;
76021;SDS011;64718;52.124;6.226;2023-05-14T07:31:51;12.20;;;8.68;;
76021;SDS011;64718;52.124;6.226;2023-05-14T07:34:17;13.68;;;9.63;;
76021;SDS011;64718;52.124;6.226;2023-05-14T07:36:44;14.02;;;9.63;;
76021;SDS011;64718;52.124;6.226;2023-05-14T07:39:12;11.13;;;8.15;;
76021;SDS011;64718;52.124;6.226;2023-05-14T07:41:39;12.55;;;8.20;;
76021;SDS011;64718;52.124;6.226;2023-05-14T07:44:05;14.63;;;8.43;;
76021;SDS011;64718;52.124;6.226;2023-05-14T07:46:32;11.45;;;8.88;;
76021;SDS011;64718;52.124;6.226;2023-05-14T07:48:58;15.75;;;9.48;;
76021;SDS011;64718;52.124;6.226;2023-05-14T07:51:25;12.63;;;8.70;;
76021;SDS011;64718;52.124;6.226;2023-05-14T07:53:52;13.55;;;9.38;;
76021;SDS011;64718;52.124;6.226;2023-05-14T07:56:20;10.32;;;8.05;;
76021;SDS011;64718;52.124;6.226;2023-05-14T07:58:47;11.70;;;8.48;;
76021;SDS011;64718;52.124;6.226;2023-05-14T08:01:13;12.68;;;8.43;;
76021;SDS011;64718;52.124;6.226;2023-05-14T08:03:40;11.57;;;8.63;;
76021;SDS011;64718;52.124;6.226;2023-05-14T08:06:07;12.00;;;8.43;;
76021;SDS011;64718;52.124;6.226;2023-05-14T08:08:33;9.40;;;8.32;;
76021;SDS011;64718;52.124;6.226;2023-05-14T08:11:00;13.07;;;8.13;;
76021;SDS011;64718;52.124;6.226;2023-05-14T08:13:29;9.18;;;7.90;;
76021;SDS011;64718;52.124;6.226;2023-05-14T08:18:22;12.73;;;8.15;;
76021;SDS011;64718;52.124;6.226;2023-05-14T08:20:49;10.73;;;8.98;;
76021;SDS011;64718;52.124;6.226;2023-05-14T08:23:15;10.70;;;8.25;;
76021;SDS011;64718;52.124;6.226;2023-05-14T08:25:42;12.07;;;8.73;;
76021;SDS011;64718;52.124;6.226;2023-05-14T08:28:08;12.10;;;8.80;;
76021;SDS011;64718;52.124;6.226;2023-05-14T08:30:36;10.82;;;8.70;;
76021;SDS011;64718;52.124;6.226;2023-05-14T08:33:03;10.77;;;7.32;;
76021;SDS011;64718;52.124;6.226;2023-05-14T08:35:29;10.15;;;7.75;;
76021;SDS011;64718;52.124;6.226;2023-05-14T08:37:56;10.25;;;8.32;;
76021;SDS011;64718;52.124;6.226;2023-05-14T08:40:22;10.85;;;8.32;;
76021;SDS011;64718;52.124;6.226;2023-05-14T08:42:49;11.35;;;8.27;;
76021;SDS011;64718;52.124;6.226;2023-05-14T08:45:17;12.02;;;7.40;;
76021;SDS011;64718;52.124;6.226;2023-05-14T08:47:47;11.10;;;7.60;;
76021;SDS011;64718;52.124;6.226;2023-05-14T08:50:15;10.05;;;7.40;;
76021;SDS011;64718;52.124;6.226;2023-05-14T08:52:43;8.98;;;8.00;;
76021;SDS011;64718;52.124;6.226;2023-05-14T08:55:10;10.30;;;7.43;;
76021;SDS011;64718;52.124;6.226;2023-05-14T08:57:37;9.07;;;7.38;;
76021;SDS011;64718;52.124;6.226;2023-05-14T09:00:05;8.27;;;7.47;;
76021;SDS011;64718;52.124;6.226;2023-05-14T09:02:35;8.70;;;6.82;;
76021;SDS011;64718;52.124;6.226;2023-05-14T09:05:05;9.70;;;7.03;;
76021;SDS011;64718;52.124;6.226;2023-05-14T09:07:33;10.20;;;7.70;;
76021;SDS011;64718;52.124;6.226;2023-05-14T09:10:00;7.65;;;6.68;;
76021;SDS011;64718;52.124;6.226;2023-05-14T09:12:27;10.00;;;7.45;;
76021;SDS011;64718;52.124;6.226;2023-05-14T09:14:54;7.30;;;6.63;;
76021;SDS011;64718;52.124;6.226;2023-05-14T09:17:20;10.57;;;7.90;;
76021;SDS011;64718;52.124;6.226;2023-05-14T09:19:50;7.40;;;6.03;;
76021;SDS011;64718;52.124;6.226;2023-05-14T09:22:18;6.28;;;4.95;;
76021;SDS011;64718;52.124;6.226;2023-05-14T09:24:46;8.63;;;6.55;;
76021;SDS011;64718;52.124;6.226;2023-05-14T09:27:28;6.68;;;5.43;;
76021;SDS011;64718;52.124;6.226;2023-05-14T09:29:55;6.57;;;5.90;;
76021;SDS011;64718;52.124;6.226;2023-05-14T09:32:21;7.20;;;5.47;;
76021;SDS011;64718;52.124;6.226;2023-05-14T09:34:48;6.80;;;5.68;;
76021;SDS011;64718;52.124;6.226;2023-05-14T09:37:14;7.10;;;5.30;;
76021;SDS011;64718;52.124;6.226;2023-05-14T09:39:42;8.45;;;5.45;;
76021;SDS011;64718;52.124;6.226;2023-05-14T09:42:08;7.78;;;4.88;;
76021;SDS011;64718;52.124;6.226;2023-05-14T09:44:35;5.78;;;5.18;;
76021;SDS011;64718;52.124;6.226;2023-05-14T09:47:02;6.00;;;4.65;;
76021;SDS011;64718;52.124;6.226;2023-05-14T09:49:28;5.60;;;4.43;;
76021;SDS011;64718;52.124;6.226;2023-05-14T09:51:55;5.57;;;4.95;;
76021;SDS011;64718;52.124;6.226;2023-05-14T09:54:22;5.80;;;4.72;;
76021;SDS011;64718;52.124;6.226;2023-05-14T09:59:17;5.70;;;5.10;;
76021;SDS011;64718;52.124;6.226;2023-05-14T10:01:44;9.48;;;5.47;;
76021;SDS011;64718;52.124;6.226;2023-05-14T10:04:11;3.53;;;3.20;;
76021;SDS011;64718;52.124;6.226;2023-05-14T10:06:39;5.05;;;3.72;;
76021;SDS011;64718;52.124;6.226;2023-05-14T10:09:09;5.00;;;3.85;;
76021;SDS011;64718;52.124;6.226;2023-05-14T10:11:38;4.28;;;3.65;;
76021;SDS011;64718;52.124;6.226;2023-05-14T10:14:10;4.43;;;3.65;;
76021;SDS011;64718;52.124;6.226;2023-05-14T10:16:42;5.25;;;3.83;;
76021;SDS011;64718;52.124;6.226;2023-05-14T10:19:11;5.32;;;3.97;;
76021;SDS011;64718;52.124;6.226;2023-05-14T10:21:43;5.45;;;3.58;;
76021;SDS011;64718;52.124;6.226;2023-05-14T10:24:12;5.00;;;4.22;;
76021;SDS011;64718;52.124;6.226;2023-05-14T10:26:40;7.80;;;4.60;;
76021;SDS011;64718;52.124;6.226;2023-05-14T10:29:09;5.03;;;3.95;;
76021;SDS011;64718;52.124;6.226;2023-05-14T10:31:46;4.07;;;3.67;;
76021;SDS011;64718;52.124;6.226;2023-05-14T10:37:01;4.90;;;3.40;;
76021;SDS011;64718;52.124;6.226;2023-05-14T10:39:44;5.47;;;3.40;;
76021;SDS011;64718;52.124;6.226;2023-05-14T10:42:12;3.60;;;2.85;;
76021;SDS011;64718;52.124;6.226;2023-05-14T10:44:48;4.30;;;2.83;;
76021;SDS011;64718;52.124;6.226;2023-05-14T10:47:17;3.40;;;2.65;;
76021;SDS011;64718;52.124;6.226;2023-05-14T10:49:44;4.03;;;2.60;;
76021;SDS011;64718;52.124;6.226;2023-05-14T10:52:13;3.85;;;2.72;;
76021;SDS011;64718;52.124;6.226;2023-05-14T10:54:44;3.05;;;2.75;;
76021;SDS011;64718;52.124;6.226;2023-05-14T10:57:13;3.88;;;3.17;;
76021;SDS011;64718;52.124;6.226;2023-05-14T10:59:40;3.10;;;2.78;;
76021;SDS011;64718;52.124;6.226;2023-05-14T11:02:19;3.10;;;2.80;;
76021;SDS011;64718;52.124;6.226;2023-05-14T11:04:56;4.13;;;2.80;;
76021;SDS011;64718;52.124;6.226;2023-05-14T11:07:27;4.30;;;3.03;;
76021;SDS011;64718;52.124;6.226;2023-05-14T11:10:01;5.32;;;3.33;;
76021;SDS011;64718;52.124;6.226;2023-05-14T11:12:29;5.88;;;3.30;;
76021;SDS011;64718;52.124;6.226;2023-05-14T11:14:57;3.35;;;2.70;;
76021;SDS011;64718;52.124;6.226;2023-05-14T11:17:27;4.53;;;3.38;;
76021;SDS011;64718;52.124;6.226;2023-05-14T11:19:55;3.10;;;2.70;;
76021;SDS011;64718;52.124;6.226;2023-05-14T11:22:23;4.07;;;3.20;;
76021;SDS011;64718;52.124;6.226;2023-05-14T11:24:49;4.45;;;3.28;;
76021;SDS011;64718;52.124;6.226;2023-05-14T11:27:16;4.35;;;3.40;;
76021;SDS011;64718;52.124;6.226;2023-05-14T11:29:43;3.92;;;3.58;;
76021;SDS011;64718;52.124;6.226;2023-05-14T11:32:11;6.78;;;3.20;;
76021;SDS011;64718;52.124;6.226;2023-05-14T11:34:39;3.90;;;3.60;;
76021;SDS011;64718;52.124;6.226;2023-05-14T11:37:08;4.32;;;3.92;;
76021;SDS011;64718;52.124;6.226;2023-05-14T11:39:36;5.85;;;4.63;;
76021;SDS011;64718;52.124;6.226;2023-05-14T11:42:04;6.45;;;4.45;;
76021;SDS011;64718;52.124;6.226;2023-05-14T11:44:36;6.80;;;4.40;;
76021;SDS011;64718;52.124;6.226;2023-05-14T11:47:03;8.57;;;5.28;;
76021;SDS011;64718;52.124;6.226;2023-05-14T11:49:30;4.78;;;4.28;;
76021;SDS011;64718;52.124;6.226;2023-05-14T11:52:01;5.40;;;4.82;;
76021;SDS011;64718;52.124;6.226;2023-05-14T11:54:30;4.72;;;4.22;;
76021;SDS011;64718;52.124;6.226;2023-05-14T11:56:57;6.28;;;4.97;;
76021;SDS011;64718;52.124;6.226;2023-05-14T11:59:25;7.15;;;4.70;;
76021;SDS011;64718;52.124;6.226;2023-05-14T12:01:52;4.43;;;4.00;;
76021;SDS011;64718;52.124;6.226;2023-05-14T12:04:20;5.05;;;4.55;;
76021;SDS011;64718;52.124;6.226;2023-05-14T12:06:47;5.55;;;4.30;;
76021;SDS011;64718;52.124;6.226;2023-05-14T12:09:16;6.53;;;4.60;;
76021;SDS011;64718;52.124;6.226;2023-05-14T12:11:43;4.10;;;3.45;;
76021;SDS011;64718;52.124;6.226;2023-05-14T12:14:10;5.10;;;3.25;;
76021;SDS011;64718;52.124;6.226;2023-05-14T12:16:39;5.07;;;3.78;;
76021;SDS011;64718;52.124;6.226;2023-05-14T12:19:07;5.15;;;4.65;;
76021;SDS011;64718;52.124;6.226;2023-05-14T12:21:35;6.50;;;5.10;;
76021;SDS011;64718;52.124;6.226;2023-05-14T12:24:03;5.25;;;3.97;;
76021;SDS011;64718;52.124;6.226;2023-05-14T12:26:32;4.57;;;4.18;;
76021;SDS011;64718;52.124;6.226;2023-05-14T12:28:59;6.90;;;3.88;;
76021;SDS011;64718;52.124;6.226;2023-05-14T12:33:54;7.45;;;4.40;;
76021;SDS011;64718;52.124;6.226;2023-05-14T12:36:20;4.70;;;4.30;;
76021;SDS011;64718;52.124;6.226;2023-05-14T12:38:47;4.25;;;3.30;;
76021;SDS011;64718;52.124;6.226;2023-05-14T12:41:13;4.22;;;3.30;;
76021;SDS011;64718;52.124;6.226;2023-05-14T12:43:42;4.60;;;3.28;;
76021;SDS011;64718;52.124;6.226;2023-05-14T12:46:09;6.90;;;4.85;;
76021;SDS011;64718;52.124;6.226;2023-05-14T12:48:35;5.13;;;4.47;;
76021;SDS011;64718;52.124;6.226;2023-05-14T12:51:02;5.90;;;4.60;;
76021;SDS011;64718;52.124;6.226;2023-05-14T12:53:29;6.60;;;4.38;;
76021;SDS011;64718;52.124;6.226;2023-05-14T12:55:55;4.78;;;4.13;;
76021;SDS011;64718;52.124;6.226;2023-05-14T12:58:21;5.53;;;4.10;;
76021;SDS011;64718;52.124;6.226;2023-05-14T13:00:49;6.35;;;3.75;;
76021;SDS011;64718;52.124;6.226;2023-05-14T13:03:16;4.78;;;4.00;;
76021;SDS011;64718;52.124;6.226;2023-05-14T13:05:42;4.60;;;4.15;;
76021;SDS011;64718;52.124;6.226;2023-05-14T13:08:09;7.85;;;4.10;;
76021;SDS011;64718;52.124;6.226;2023-05-14T13:10:38;6.13;;;4.53;;
76021;SDS011;64718;52.124;6.226;2023-05-14T13:13:05;8.57;;;4.20;;
76021;SDS011;64718;52.124;6.226;2023-05-14T13:15:31;4.90;;;4.30;;
76021;SDS011;64718;52.124;6.226;2023-05-14T13:18:00;4.07;;;3.53;;
76021;SDS011;64718;52.124;6.226;2023-05-14T13:20:26;5.93;;;4.32;;
76021;SDS011;64718;52.124;6.226;2023-05-14T13:22:55;3.80;;;3.13;;
76021;SDS011;64718;52.124;6.226;2023-05-14T13:25:21;4.00;;;3.65;;
76021;SDS011;64718;52.124;6.226;2023-05-14T13:27:48;5.03;;;3.30;;
76021;SDS011;64718;52.124;6.226;2023-05-14T13:30:15;4.88;;;3.58;;
76021;SDS011;64718;52.124;6.226;2023-05-14T13:32:42;4.00;;;3.10;;
76021;SDS011;64718;52.124;6.226;2023-05-14T13:35:10;4.40;;;3.35;;
76021;SDS011;64718;52.124;6.226;2023-05-14T13:37:37;4.20;;;3.15;;
76021;SDS011;64718;52.124;6.226;2023-05-14T13:40:04;3.60;;;3.25;;
76021;SDS011;64718;52.124;6.226;2023-05-14T13:42:32;3.92;;;3.53;;
76021;SDS011;64718;52.124;6.226;2023-05-14T13:44:59;5.50;;;3.00;;
76021;SDS011;64718;52.124;6.226;2023-05-14T13:47:26;3.38;;;3.08;;
76021;SDS011;64718;52.124;6.226;2023-05-14T13:49:52;5.60;;;3.03;;
76021;SDS011;64718;52.124;6.226;2023-05-14T13:52:20;3.08;;;2.78;;
76021;SDS011;64718;52.124;6.226;2023-05-14T13:54:47;3.08;;;2.80;;
76021;SDS011;64718;52.124;6.226;2023-05-14T13:57:14;4.45;;;2.38;;
76021;SDS011;64718;52.124;6.226;2023-05-14T13:59:41;3.08;;;2.78;;
76021;SDS011;64718;52.124;6.226;2023-05-14T14:02:07;4.18;;;2.78;;
76021;SDS011;64718;52.124;6.226;2023-05-14T14:04:34;2.88;;;2.65;;
76021;SDS011;64718;52.124;6.226;2023-05-14T14:07:00;3.63;;;2.85;;
76021;SDS011;64718;52.124;6.226;2023-05-14T14:09:28;4.00;;;3.60;;
76021;SDS011;64718;52.124;6.226;2023-05-14T14:11:59;6.85;;;3.08;;
76021;SDS011;64718;52.124;6.226;2023-05-14T14:14:26;3.63;;;3.33;;
76021;SDS011;64718;52.124;6.226;2023-05-14T14:16:52;6.28;;;3.03;;
76021;SDS011;64718;52.124;6.226;2023-05-14T14:19:19;2.90;;;2.33;;
76021;SDS011;64718;52.124;6.226;2023-05-14T14:21:45;3.15;;;2.88;;
76021;SDS011;64718;52.124;6.226;2023-05-14T14:24:12;3.53;;;2.38;;
76021;SDS011;64718;52.124;6.226;2023-05-14T14:26:40;4.20;;;3.10;;
76021;SDS011;64718;52.124;6.226;2023-05-14T14:29:06;5.32;;;3.28;;
76021;SDS011;64718;52.124;6.226;2023-05-14T14:31:33;5.88;;;2.88;;
76021;SDS011;64718;52.124;6.226;2023-05-14T14:34:00;5.38;;;3.55;;
76021;SDS011;64718;52.124;6.226;2023-05-14T14:36:27;3.85;;;2.80;;
76021;SDS011;64718;52.124;6.226;2023-05-14T14:38:54;3.33;;;3.03;;
76021;SDS011;64718;52.124;6.226;2023-05-14T14:41:21;6.78;;;2.88;;
76021;SDS011;64718;52.124;6.226;2023-05-14T14:43:49;3.33;;;3.03;;
76021;SDS011;64718;52.124;6.226;2023-05-14T14:46:15;4.18;;;2.50;;